createdAt,value
2023-02-21T00:00:13.032Z,57.02
2023-02-21T00:01:13.580Z,57.10
2023-02-21T00:02:13.306Z,56.83
2023-02-21T00:03:13.360Z,56.83
2023-02-21T00:04:13.542Z,56.83
2023-02-21T00:05:13.642Z,56.79
2023-02-21T00:06:14.887Z,56.75
2023-02-21T00:07:13.918Z,56.90
2023-02-21T00:08:14.052Z,56.90
2023-02-21T00:09:14.192Z,56.75
2023-02-21T00:10:14.336Z,56.56
2023-02-21T00:11:14.909Z,56.52
2023-02-21T00:12:14.579Z,56.59
2023-02-21T00:13:14.669Z,56.29
2023-02-21T00:14:14.817Z,56.56
2023-02-21T00:15:15.038Z,56.67
2023-02-21T00:16:15.286Z,56.86
2023-02-21T00:17:15.210Z,57.14
2023-02-21T00:18:15.359Z,56.75
2023-02-21T00:19:15.458Z,56.83
2023-02-21T00:20:18.187Z,56.56
2023-02-21T00:21:16.078Z,56.79
2023-02-21T00:22:15.866Z,56.48
2023-02-21T00:23:15.948Z,56.86
2023-02-21T00:24:16.107Z,56.90
2023-02-21T00:25:16.201Z,57.02
2023-02-21T00:26:16.386Z,57.33
2023-02-21T00:27:16.414Z,57.49
2023-02-21T00:28:16.554Z,57.61
2023-02-21T00:29:16.693Z,57.97
2023-02-21T00:30:16.900Z,58.01
2023-02-21T00:31:17.285Z,57.93
2023-02-21T00:32:18.203Z,57.89
2023-02-21T00:33:17.208Z,58.29
2023-02-21T00:34:17.292Z,58.46
2023-02-21T00:35:17.510Z,58.17
2023-02-21T00:36:17.571Z,58.01
2023-02-21T00:37:17.767Z,58.17
2023-02-21T00:38:17.819Z,58.42
2023-02-21T00:39:17.956Z,58.09
2023-02-21T00:40:18.038Z,57.93
2023-02-21T00:41:18.181Z,57.77
2023-02-21T00:42:18.414Z,57.89
2023-02-21T00:43:18.468Z,57.41
2023-02-21T00:44:18.556Z,57.53
2023-02-21T00:45:18.668Z,57.77
2023-02-21T00:46:18.798Z,58.01
2023-02-21T00:47:18.974Z,57.93
2023-02-21T00:48:19.044Z,58.17
2023-02-21T00:49:19.185Z,58.38
2023-02-21T00:50:19.295Z,58.50
2023-02-21T00:51:19.384Z,58.54
2023-02-21T00:52:19.576Z,58.42
2023-02-21T00:53:19.605Z,58.42
2023-02-21T00:54:19.743Z,58.38
2023-02-21T00:55:20.006Z,58.33
2023-02-21T00:56:20.020Z,58.29
2023-02-21T00:57:20.223Z,58.62
2023-02-21T00:58:20.195Z,58.50
2023-02-21T00:59:20.357Z,58.74
2023-02-21T01:00:20.446Z,58.33
2023-02-21T01:01:20.647Z,58.17
2023-02-21T01:02:20.820Z,58.09
2023-02-21T01:03:20.812Z,58.29
2023-02-21T01:04:20.958Z,58.33
2023-02-21T01:05:21.061Z,58.42
2023-02-21T01:06:21.163Z,58.21
2023-02-21T01:07:21.353Z,58.50
2023-02-21T01:08:21.482Z,58.79
2023-02-21T01:09:21.548Z,58.91
2023-02-21T01:10:21.645Z,58.70
2023-02-21T01:11:21.749Z,58.66
2023-02-21T01:12:21.843Z,58.42
2023-02-21T01:13:22.093Z,58.09
2023-02-21T01:14:22.123Z,58.33
2023-02-21T01:15:22.294Z,58.46
2023-02-21T01:16:22.344Z,58.09
2023-02-21T01:17:22.499Z,57.93
2023-02-21T01:18:22.713Z,57.81
2023-02-21T01:19:22.641Z,57.61
2023-02-21T01:20:22.791Z,57.73
2023-02-21T01:21:22.900Z,57.45
2023-02-21T01:22:23.042Z,57.45
2023-02-21T01:23:23.334Z,57.17
2023-02-21T01:24:23.584Z,57.02
2023-02-21T01:25:23.472Z,56.90
2023-02-21T01:26:23.602Z,56.75
2023-02-21T01:27:23.751Z,56.59
2023-02-21T01:28:23.852Z,56.86
2023-02-21T01:29:24.103Z,56.71
2023-02-21T01:30:24.193Z,56.48
2023-02-21T01:31:24.300Z,56.14
2023-02-21T01:32:24.429Z,55.87
2023-02-21T01:33:24.453Z,55.87
2023-02-21T01:34:24.698Z,55.69
2023-02-21T01:35:24.770Z,55.47
2023-02-21T01:36:24.870Z,55.65
2023-02-21T01:37:24.991Z,54.95
2023-02-21T01:38:25.109Z,54.63
2023-02-21T01:39:25.393Z,54.70
2023-02-21T01:40:25.329Z,54.67
2023-02-21T01:41:25.414Z,54.67
2023-02-21T01:42:25.555Z,54.74
2023-02-21T01:43:25.706Z,54.52
2023-02-21T01:44:25.986Z,54.24
2023-02-21T01:45:25.966Z,54.63
2023-02-21T01:46:26.162Z,54.85
2023-02-21T01:47:26.225Z,54.67
2023-02-21T01:48:26.328Z,54.38
2023-02-21T01:49:26.515Z,54.74
2023-02-21T01:50:26.612Z,54.70
2023-02-21T01:51:26.753Z,54.31
2023-02-21T01:52:26.904Z,54.13
2023-02-21T01:53:27.004Z,54.24
2023-02-21T01:54:27.363Z,53.85
2023-02-21T01:55:27.265Z,53.85
2023-02-21T01:56:27.345Z,53.89
2023-02-21T01:57:27.500Z,54.06
2023-02-21T01:58:27.602Z,53.58
2023-02-21T01:59:27.752Z,53.17
2023-02-21T02:00:27.902Z,52.76
2023-02-21T02:01:27.961Z,52.60
2023-02-21T02:02:28.271Z,52.56
2023-02-21T02:03:28.214Z,52.33
2023-02-21T02:04:28.326Z,52.17
2023-02-21T02:05:28.420Z,52.01
2023-02-21T02:06:28.698Z,52.10
2023-02-21T02:07:28.682Z,51.56
2023-02-21T02:08:28.844Z,51.59
2023-02-21T02:09:28.931Z,51.53
2023-02-21T02:10:29.090Z,51.78
2023-02-21T02:11:29.311Z,51.72
2023-02-21T02:12:29.299Z,51.56
2023-02-21T02:13:29.380Z,51.56
2023-02-21T02:14:29.487Z,51.49
2023-02-21T02:15:29.650Z,51.65
2023-02-21T02:16:29.867Z,51.37
2023-02-21T02:17:29.836Z,51.49
2023-02-21T02:18:30.016Z,51.53
2023-02-21T02:19:30.103Z,51.62
2023-02-21T02:20:30.195Z,51.15
2023-02-21T02:21:30.333Z,51.21
2023-02-21T02:22:30.475Z,51.24
2023-02-21T02:23:30.796Z,50.80
2023-02-21T02:24:30.759Z,50.68
2023-02-21T02:25:30.852Z,51.05
2023-02-21T02:26:31.026Z,51.24
2023-02-21T02:27:31.058Z,51.05
2023-02-21T02:28:31.212Z,51.12
2023-02-21T02:29:31.397Z,50.99
2023-02-21T02:30:31.483Z,50.80
2023-02-21T02:31:31.734Z,50.74
2023-02-21T02:32:31.663Z,50.96
2023-02-21T02:33:31.763Z,50.74
2023-02-21T02:34:31.912Z,50.80
2023-02-21T02:35:32.037Z,50.74
2023-02-21T02:36:32.352Z,50.99
2023-02-21T02:37:32.272Z,50.80
2023-02-21T02:38:32.373Z,51.05
2023-02-21T02:39:32.472Z,50.90
2023-02-21T02:40:32.627Z,51.18
2023-02-21T02:41:32.943Z,50.80
2023-02-21T02:42:32.821Z,50.90
2023-02-21T02:43:32.923Z,51.15
2023-02-21T02:44:33.043Z,51.02
2023-02-21T02:45:33.138Z,50.80
2023-02-21T02:46:33.475Z,51.05
2023-02-21T02:47:33.347Z,50.99
2023-02-21T02:48:33.498Z,51.02
2023-02-21T02:49:33.598Z,50.90
2023-02-21T02:50:33.711Z,50.93
2023-02-21T02:51:33.926Z,50.87
2023-02-21T02:52:33.925Z,50.74
2023-02-21T02:53:34.047Z,50.80
2023-02-21T02:54:34.154Z,50.59
2023-02-21T02:55:34.343Z,51.08
2023-02-21T02:56:34.488Z,50.59
2023-02-21T02:57:34.527Z,50.74
2023-02-21T02:58:34.663Z,50.96
2023-02-21T02:59:34.821Z,50.87
2023-02-21T03:00:34.925Z,50.80
2023-02-21T03:01:35.122Z,50.74
2023-02-21T03:02:35.171Z,51.05
2023-02-21T03:03:35.350Z,50.77
2023-02-21T03:04:35.360Z,50.80
2023-02-21T03:05:35.658Z,50.68
2023-02-21T03:06:35.728Z,50.80
2023-02-21T03:07:36.668Z,50.90
2023-02-21T03:08:35.921Z,51.02
2023-02-21T03:09:36.008Z,50.80
2023-02-21T03:10:36.118Z,50.68
2023-02-21T03:11:36.298Z,50.62
2023-02-21T03:12:36.375Z,50.65
2023-02-21T03:13:36.486Z,50.47
2023-02-21T03:14:36.593Z,50.56
2023-02-21T03:15:36.737Z,50.38
2023-02-21T03:16:36.886Z,50.68
2023-02-21T03:17:37.022Z,50.71
2023-02-21T03:18:37.068Z,50.71
2023-02-21T03:19:37.197Z,50.71
2023-02-21T03:20:37.350Z,50.80
2023-02-21T03:21:41.256Z,50.38
2023-02-21T03:22:37.714Z,50.38
2023-02-21T03:23:37.714Z,50.10
2023-02-21T03:24:37.847Z,50.19
2023-02-21T03:25:37.996Z,50.28
2023-02-21T03:26:38.219Z,50.34
2023-02-21T03:27:38.384Z,50.38
2023-02-21T03:28:38.384Z,50.31
2023-02-21T03:29:38.489Z,50.22
2023-02-21T03:30:38.660Z,50.16
2023-02-21T03:31:38.873Z,50.38
2023-02-21T03:32:38.961Z,50.44
2023-02-21T03:33:39.021Z,50.25
2023-02-21T03:34:39.160Z,50.16
2023-02-21T03:35:39.323Z,50.19
2023-02-21T03:36:39.346Z,50.28
2023-02-21T03:37:39.672Z,50.13
2023-02-21T03:38:39.603Z,50.01
2023-02-21T03:39:39.761Z,50.16
2023-02-21T03:40:39.851Z,50.04
2023-02-21T03:41:39.965Z,49.98
2023-02-21T03:42:40.202Z,50.04
2023-02-21T03:43:40.202Z,50.28
2023-02-21T03:44:40.299Z,49.95
2023-02-21T03:45:40.440Z,50.16
2023-02-21T03:46:41.028Z,50.16
2023-02-21T03:47:40.919Z,50.04
2023-02-21T03:48:40.888Z,50.10
2023-02-21T03:49:40.998Z,50.07
2023-02-21T03:50:41.098Z,50.13
2023-02-21T03:51:41.187Z,50.16
2023-02-21T03:52:41.579Z,50.28
2023-02-21T03:53:41.469Z,50.19
2023-02-21T03:54:41.567Z,50.19
2023-02-21T03:55:41.712Z,50.07
2023-02-21T03:56:42.545Z,50.04
2023-02-21T03:57:41.891Z,50.13
2023-02-21T03:58:42.060Z,50.04
2023-02-21T03:59:42.090Z,50.13
2023-02-21T04:00:42.282Z,50.25
2023-02-21T04:01:42.384Z,50.04
2023-02-21T04:02:42.439Z,49.92
2023-02-21T04:03:42.720Z,50.04
2023-02-21T04:04:42.699Z,50.10
2023-02-21T04:05:42.838Z,50.22
2023-02-21T04:06:42.980Z,50.34
2023-02-21T04:07:43.131Z,50.19
2023-02-21T04:08:43.357Z,50.25
2023-02-21T04:09:43.349Z,50.22
2023-02-21T04:10:51.712Z,50.19
2023-02-21T04:11:44.544Z,49.95
2023-02-21T04:12:43.676Z,50.22
2023-02-21T04:13:43.833Z,50.22
2023-02-21T04:14:43.998Z,49.83
2023-02-21T04:15:44.698Z,49.77
2023-02-21T04:16:44.185Z,50.04
2023-02-21T04:17:44.337Z,49.80
2023-02-21T04:18:44.484Z,50.13
2023-02-21T04:19:44.985Z,50.13
2023-02-21T04:20:44.716Z,50.34
2023-02-21T04:21:44.843Z,50.16
2023-02-21T04:22:51.779Z,49.92
2023-02-21T04:23:46.054Z,50.04
2023-02-21T04:24:45.183Z,50.22
2023-02-21T04:25:45.424Z,49.89
2023-02-21T04:26:45.469Z,50.25
2023-02-21T04:27:45.622Z,50.01
2023-02-21T04:28:45.718Z,49.86
2023-02-21T04:29:45.814Z,49.92
2023-02-21T04:30:46.011Z,49.80
2023-02-21T04:31:46.125Z,50.07
2023-02-21T04:32:46.279Z,49.95
2023-02-21T04:33:46.281Z,50.19
2023-02-21T04:34:46.443Z,49.98
2023-02-21T04:35:46.800Z,50.25
2023-02-21T04:36:46.680Z,50.07
2023-02-21T04:37:46.800Z,50.16
2023-02-21T04:38:46.893Z,50.22
2023-02-21T04:39:47.031Z,50.13
2023-02-21T04:40:47.340Z,50.19
2023-02-21T04:41:47.309Z,50.53
2023-02-21T04:42:47.392Z,50.19
2023-02-21T04:43:47.542Z,50.38
2023-02-21T04:44:59.358Z,50.13
2023-02-21T04:45:49.078Z,50.01
2023-02-21T04:46:47.934Z,50.16
2023-02-21T04:47:48.029Z,50.07
2023-02-21T04:48:48.187Z,50.25
2023-02-21T04:49:48.282Z,50.19
2023-02-21T04:50:48.508Z,50.38
2023-02-21T04:51:48.486Z,50.34
2023-02-21T04:52:48.627Z,50.34
2023-02-21T04:53:48.741Z,50.50
2023-02-21T04:54:48.845Z,50.47
2023-02-21T04:55:49.178Z,50.38
2023-02-21T04:56:49.112Z,50.25
2023-02-21T04:57:49.368Z,50.65
2023-02-21T04:58:49.309Z,50.38
2023-02-21T04:59:49.414Z,50.50
2023-02-21T05:00:49.517Z,50.47
2023-02-21T05:01:49.685Z,50.50
2023-02-21T05:02:49.954Z,50.56
2023-02-21T05:03:49.904Z,50.53
2023-02-21T05:04:50.065Z,51.02
2023-02-21T05:05:50.123Z,50.77
2023-02-21T05:06:50.224Z,50.83
2023-02-21T05:07:50.511Z,50.96
2023-02-21T05:08:50.486Z,51.05
2023-02-21T05:09:50.661Z,50.99
2023-02-21T05:10:50.795Z,51.34
2023-02-21T05:11:50.879Z,50.93
2023-02-21T05:12:51.067Z,50.77
2023-02-21T05:13:51.135Z,50.80
2023-02-21T05:14:51.252Z,50.77
2023-02-21T05:15:51.461Z,50.71
2023-02-21T05:16:51.555Z,50.68
2023-02-21T05:17:51.719Z,50.59
2023-02-21T05:18:51.758Z,50.90
2023-02-21T05:19:51.861Z,51.12
2023-02-21T05:20:52.003Z,50.93
2023-02-21T05:21:52.138Z,51.02
2023-02-21T05:22:53.304Z,51.02
2023-02-21T05:23:52.408Z,50.96
2023-02-21T05:24:52.505Z,51.12
2023-02-21T05:25:52.651Z,50.96
2023-02-21T05:26:52.799Z,51.24
2023-02-21T05:27:52.957Z,51.37
2023-02-21T05:28:52.997Z,51.46
2023-02-21T05:29:53.146Z,51.27
2023-02-21T05:30:53.333Z,51.27
2023-02-21T05:31:53.410Z,51.40
2023-02-21T05:32:53.565Z,51.21
2023-02-21T05:33:53.606Z,51.40
2023-02-21T05:34:53.741Z,51.24
2023-02-21T05:35:53.854Z,51.34
2023-02-21T05:36:53.916Z,51.46
2023-02-21T05:37:54.156Z,51.43
2023-02-21T05:38:54.310Z,51.49
2023-02-21T05:39:54.304Z,51.49
2023-02-21T05:40:54.465Z,51.65
2023-02-21T05:41:54.563Z,51.49
2023-02-21T05:42:54.772Z,51.72
2023-02-21T05:43:54.770Z,51.88
2023-02-21T05:44:54.903Z,51.85
2023-02-21T05:45:55.056Z,51.72
2023-02-21T05:46:55.218Z,51.72
2023-02-21T05:47:55.424Z,51.85
2023-02-21T05:48:55.425Z,51.97
2023-02-21T05:49:55.503Z,51.85
2023-02-21T05:50:55.645Z,51.69
2023-02-21T05:51:55.813Z,52.01
2023-02-21T05:52:56.033Z,52.04
2023-02-21T05:53:56.023Z,52.04
2023-02-21T05:54:56.119Z,52.07
2023-02-21T05:55:56.322Z,51.69
2023-02-21T05:56:56.360Z,52.30
2023-02-21T05:57:56.587Z,52.01
2023-02-21T05:58:56.606Z,51.97
2023-02-21T05:59:56.710Z,51.97
2023-02-21T06:00:56.858Z,52.01
2023-02-21T06:01:57.030Z,51.97
2023-02-21T06:02:57.183Z,51.85
2023-02-21T06:03:57.164Z,51.85
2023-02-21T06:04:57.402Z,51.65
2023-02-21T06:05:57.436Z,51.65
2023-02-21T06:06:57.523Z,51.97
2023-02-21T06:07:57.674Z,51.81
2023-02-21T06:08:57.815Z,51.69
2023-02-21T06:09:58.081Z,51.59
2023-02-21T06:10:58.022Z,51.94
2023-02-21T06:11:58.122Z,51.94
2023-02-21T06:12:58.220Z,52.10
2023-02-21T06:13:58.338Z,52.20
2023-02-21T06:14:58.657Z,52.01
2023-02-21T06:15:58.738Z,52.27
2023-02-21T06:16:58.698Z,52.14
2023-02-21T06:17:58.828Z,52.14
2023-02-21T06:18:58.919Z,52.33
2023-02-21T06:19:59.466Z,52.20
2023-02-21T06:20:59.138Z,52.27
2023-02-21T06:21:59.236Z,52.14
2023-02-21T06:22:59.336Z,52.20
2023-02-21T06:23:59.643Z,51.94
2023-02-21T06:24:59.649Z,51.72
2023-02-21T06:25:59.725Z,51.97
2023-02-21T06:26:59.832Z,51.88
2023-02-21T06:27:59.975Z,52.04
2023-02-21T06:29:00.257Z,51.97
2023-02-21T06:30:00.251Z,52.04
2023-02-21T06:31:00.403Z,51.97
2023-02-21T06:32:00.539Z,51.85
2023-02-21T06:33:00.651Z,52.14
2023-02-21T06:34:00.896Z,51.85
2023-02-21T06:35:00.903Z,51.72
2023-02-21T06:36:01.218Z,51.65
2023-02-21T06:37:01.094Z,51.56
2023-02-21T06:38:01.228Z,51.72
2023-02-21T06:39:01.392Z,51.72
2023-02-21T06:40:01.483Z,51.43
2023-02-21T06:41:03.269Z,51.46
2023-02-21T06:42:01.696Z,51.46
2023-02-21T06:43:01.846Z,51.56
2023-02-21T06:44:01.937Z,51.65
2023-02-21T06:45:02.088Z,51.75
2023-02-21T06:46:02.272Z,51.59
2023-02-21T06:47:02.333Z,51.69
2023-02-21T06:48:02.425Z,51.78
2023-02-21T06:49:02.531Z,51.94
2023-02-21T06:50:02.635Z,51.65
2023-02-21T06:51:02.857Z,51.75
2023-02-21T06:52:02.837Z,51.62
2023-02-21T06:53:02.938Z,51.62
2023-02-21T06:54:03.048Z,51.40
2023-02-21T06:55:03.151Z,51.46
2023-02-21T06:56:03.397Z,51.18
2023-02-21T06:57:03.394Z,51.21
2023-02-21T06:58:03.497Z,51.15
2023-02-21T06:59:03.587Z,51.40
2023-02-21T07:00:03.780Z,51.72
2023-02-21T07:01:03.915Z,51.24
2023-02-21T07:02:04.000Z,51.53
2023-02-21T07:03:04.125Z,51.43
2023-02-21T07:04:04.338Z,51.62
2023-02-21T07:05:04.384Z,51.46
2023-02-21T07:06:05.081Z,51.72
2023-02-21T07:07:04.632Z,51.34
2023-02-21T07:08:04.746Z,51.69
2023-02-21T07:09:04.870Z,51.72
2023-02-21T07:10:04.988Z,51.72
2023-02-21T07:11:05.061Z,51.59
2023-02-21T07:12:07.760Z,51.88
2023-02-21T07:13:05.307Z,52.04
2023-02-21T07:14:05.559Z,52.10
2023-02-21T07:15:05.558Z,52.14
2023-02-21T07:16:05.733Z,52.24
2023-02-21T07:17:05.791Z,52.24
2023-02-21T07:18:05.929Z,52.37
2023-02-21T07:19:06.237Z,52.27
2023-02-21T07:20:06.215Z,52.53
2023-02-21T07:21:06.376Z,52.30
2023-02-21T07:22:06.474Z,52.01
2023-02-21T07:23:06.576Z,52.10
2023-02-21T07:24:06.834Z,52.14
2023-02-21T07:25:06.816Z,52.37
2023-02-21T07:26:06.915Z,52.40
2023-02-21T07:27:07.143Z,52.20
2023-02-21T07:28:07.164Z,52.27
2023-02-21T07:29:07.285Z,52.14
2023-02-21T07:30:07.427Z,52.10
2023-02-21T07:31:07.550Z,52.20
2023-02-21T07:32:08.131Z,52.43
2023-02-21T07:33:07.772Z,52.40
2023-02-21T07:34:07.869Z,52.10
2023-02-21T07:35:08.154Z,52.37
2023-02-21T07:36:08.264Z,52.53
2023-02-21T07:37:08.251Z,52.01
2023-02-21T07:38:08.399Z,52.43
2023-02-21T07:39:08.500Z,52.63
2023-02-21T07:40:10.049Z,52.30
2023-02-21T07:41:08.769Z,52.50
2023-02-21T07:42:08.863Z,52.04
2023-02-21T07:43:08.960Z,52.24
2023-02-21T07:44:09.083Z,52.30
2023-02-21T07:45:09.384Z,52.33
2023-02-21T07:46:09.387Z,51.81
2023-02-21T07:47:09.429Z,52.37
2023-02-21T07:48:09.526Z,52.27
2023-02-21T07:49:09.729Z,52.27
2023-02-21T07:50:09.769Z,52.14
2023-02-21T07:51:09.889Z,52.76
2023-02-21T07:52:10.025Z,52.60
2023-02-21T07:53:11.252Z,52.53
2023-02-21T07:54:13.507Z,52.33
2023-02-21T07:55:10.387Z,52.53
2023-02-21T07:56:10.542Z,52.86
2023-02-21T07:57:10.644Z,52.76
2023-02-21T07:58:10.728Z,52.56
2023-02-21T07:59:10.876Z,53.00
2023-02-21T08:00:11.082Z,53.03
2023-02-21T08:01:11.108Z,52.80
2023-02-21T08:02:11.254Z,53.10
2023-02-21T08:03:11.356Z,52.53
2023-02-21T08:04:11.516Z,53.24
2023-02-21T08:05:11.685Z,52.83
2023-02-21T08:06:11.734Z,52.80
2023-02-21T08:07:11.835Z,52.83
2023-02-21T08:08:11.942Z,52.93
2023-02-21T08:09:12.043Z,52.76
2023-02-21T08:10:12.263Z,52.70
2023-02-21T08:11:12.291Z,52.93
2023-02-21T08:12:12.389Z,52.76
2023-02-21T08:13:12.490Z,52.90
2023-02-21T08:14:12.577Z,52.66
2023-02-21T08:15:13.502Z,52.63
2023-02-21T08:16:12.956Z,52.66
2023-02-21T08:17:12.967Z,52.60
2023-02-21T08:18:13.197Z,52.56
2023-02-21T08:19:13.241Z,52.93
2023-02-21T08:20:13.351Z,52.70
2023-02-21T08:21:13.726Z,52.80
2023-02-21T08:22:13.560Z,52.73
2023-02-21T08:23:13.835Z,52.47
2023-02-21T08:24:13.842Z,52.70
2023-02-21T08:25:13.941Z,52.73
2023-02-21T08:26:14.113Z,52.76
2023-02-21T08:27:14.172Z,52.43
2023-02-21T08:28:14.267Z,52.53
2023-02-21T08:29:14.378Z,52.76
2023-02-21T08:30:14.525Z,52.70
2023-02-21T08:31:15.006Z,52.80
2023-02-21T08:32:14.739Z,52.97
2023-02-21T08:33:14.946Z,52.97
2023-02-21T08:34:15.000Z,52.90
2023-02-21T08:35:15.103Z,52.86
2023-02-21T08:36:15.211Z,52.86
2023-02-21T08:37:15.310Z,53.20
2023-02-21T08:38:15.490Z,52.86
2023-02-21T08:39:15.529Z,52.93
2023-02-21T08:40:15.662Z,53.03
2023-02-21T08:41:16.083Z,52.97
2023-02-21T08:42:15.981Z,53.00
2023-02-21T08:43:15.998Z,53.10
2023-02-21T08:44:16.101Z,52.83
2023-02-21T08:45:16.231Z,52.86
2023-02-21T08:46:16.388Z,52.90
2023-02-21T08:47:16.617Z,53.00
2023-02-21T08:48:16.650Z,52.86
2023-02-21T08:49:16.813Z,52.50
2023-02-21T08:50:16.892Z,52.80
2023-02-21T08:51:17.413Z,52.73
2023-02-21T08:52:17.229Z,52.66
2023-02-21T08:53:17.270Z,53.10
2023-02-21T08:54:17.386Z,53.10
2023-02-21T08:55:17.484Z,52.66
2023-02-21T08:56:17.706Z,52.73
2023-02-21T08:57:17.775Z,52.90
2023-02-21T08:58:17.877Z,52.56
2023-02-21T08:59:18.025Z,52.56
2023-02-21T09:00:18.124Z,52.53
2023-02-21T09:01:18.539Z,53.03
2023-02-21T09:02:18.476Z,52.97
2023-02-21T09:03:18.468Z,52.83
2023-02-21T09:04:18.545Z,53.51
2023-02-21T09:05:18.635Z,53.34
2023-02-21T09:06:18.777Z,53.51
2023-02-21T09:07:19.052Z,53.44
2023-02-21T09:08:19.034Z,53.20
2023-02-21T09:09:19.123Z,53.07
2023-02-21T09:10:19.272Z,52.97
2023-02-21T09:11:19.498Z,53.10
2023-02-21T09:12:19.587Z,53.03
2023-02-21T09:13:19.626Z,53.13
2023-02-21T09:14:19.756Z,53.17
2023-02-21T09:15:19.863Z,52.80
2023-02-21T09:16:20.068Z,53.00
2023-02-21T09:17:20.142Z,53.47
2023-02-21T09:18:20.201Z,53.44
2023-02-21T09:19:20.294Z,53.96
2023-02-21T09:20:20.451Z,53.68
2023-02-21T09:21:20.572Z,54.13
2023-02-21T09:22:20.766Z,54.27
2023-02-21T09:23:20.851Z,54.03
2023-02-21T09:24:20.891Z,54.13
2023-02-21T09:25:20.971Z,54.27
2023-02-21T09:26:21.141Z,54.06
2023-02-21T09:27:21.331Z,54.17
2023-02-21T09:28:21.378Z,54.13
2023-02-21T09:29:21.491Z,54.35
2023-02-21T09:30:21.737Z,54.06
2023-02-21T09:31:21.762Z,54.13
2023-02-21T09:32:21.915Z,54.35
2023-02-21T09:33:23.246Z,54.42
2023-02-21T09:34:22.049Z,54.45
2023-02-21T09:35:22.130Z,54.17
2023-02-21T09:36:22.281Z,54.42
2023-02-21T09:37:22.568Z,54.24
2023-02-21T09:38:22.488Z,54.24
2023-02-21T09:39:22.617Z,54.35
2023-02-21T09:40:22.917Z,54.13
2023-02-21T09:41:22.839Z,54.06
2023-02-21T09:42:23.022Z,54.10
2023-02-21T09:43:23.101Z,53.99
2023-02-21T09:44:23.243Z,54.06
2023-02-21T09:45:23.317Z,53.99
2023-02-21T09:46:23.489Z,54.24
2023-02-21T09:47:23.717Z,54.35
2023-02-21T09:48:23.705Z,54.38
2023-02-21T09:49:23.814Z,54.20
2023-02-21T09:50:23.928Z,54.10
2023-02-21T09:51:24.142Z,54.52
2023-02-21T09:52:24.997Z,54.38
2023-02-21T09:53:24.411Z,54.13
2023-02-21T09:54:24.436Z,54.59
2023-02-21T09:55:24.544Z,54.24
2023-02-21T09:56:24.614Z,54.24
2023-02-21T09:57:24.791Z,54.59
2023-02-21T09:58:24.982Z,54.35
2023-02-21T09:59:24.987Z,54.38
2023-02-21T10:00:25.088Z,54.67
2023-02-21T10:01:25.726Z,54.52
2023-02-21T10:02:25.354Z,54.35
2023-02-21T10:03:25.502Z,54.49
2023-02-21T10:04:25.553Z,54.38
2023-02-21T10:05:25.654Z,54.35
2023-02-21T10:06:25.777Z,54.27
2023-02-21T10:07:25.876Z,54.63
2023-02-21T10:08:27.767Z,54.99
2023-02-21T10:09:26.113Z,54.49
2023-02-21T10:10:26.224Z,55.21
2023-02-21T10:11:26.429Z,54.81
2023-02-21T10:12:26.453Z,55.35
2023-02-21T10:13:26.669Z,55.95
2023-02-21T10:14:26.694Z,55.87
2023-02-21T10:15:26.760Z,55.80
2023-02-21T10:16:26.921Z,56.02
2023-02-21T10:17:26.977Z,56.14
2023-02-21T10:18:27.449Z,56.59
2023-02-21T10:19:27.414Z,57.06
2023-02-21T10:20:27.336Z,56.75
2023-02-21T10:21:27.494Z,56.33
2023-02-21T10:22:27.618Z,56.25
2023-02-21T10:23:27.765Z,56.40
2023-02-21T10:24:27.817Z,56.90
2023-02-21T10:25:27.944Z,56.94
2023-02-21T10:26:28.034Z,57.61
2023-02-21T10:27:28.138Z,57.73
2023-02-21T10:28:28.441Z,57.97
2023-02-21T10:29:28.358Z,58.46
2023-02-21T10:30:28.649Z,59.08
2023-02-21T10:31:28.777Z,59.93
2023-02-21T10:32:28.703Z,59.97
2023-02-21T10:33:28.843Z,61.47
2023-02-21T10:34:29.055Z,63.24
2023-02-21T10:35:29.100Z,64.46
2023-02-21T10:36:29.196Z,65.84
2023-02-21T10:37:29.336Z,66.73
2023-02-21T10:38:29.426Z,67.11
2023-02-21T10:39:29.561Z,67.54
2023-02-21T10:40:29.674Z,68.43
2023-02-21T10:41:29.808Z,71.23
2023-02-21T10:42:29.923Z,76.88
2023-02-21T10:43:30.006Z,82.26
2023-02-21T10:44:30.225Z,85.81
2023-02-21T10:45:30.213Z,87.25
2023-02-21T10:46:30.345Z,85.81
2023-02-21T10:47:30.436Z,82.10
2023-02-21T10:48:30.554Z,81.61
2023-02-21T10:49:31.304Z,83.08
2023-02-21T10:50:30.765Z,85.37
2023-02-21T10:51:30.963Z,90.96
2023-02-21T10:52:31.007Z,95.47
2023-02-21T10:53:31.161Z,99.57
2023-02-21T10:54:32.911Z,104.89
2023-02-21T10:55:33.381Z,110.81
2023-02-21T10:56:31.493Z,116.05
2023-02-21T10:57:31.586Z,119.20
2023-02-21T10:58:31.692Z,122.52
2023-02-21T10:59:31.812Z,121.63
2023-02-21T11:00:32.032Z,122.25
2023-02-21T11:01:32.145Z,127.58
2023-02-21T11:02:32.221Z,136.45
2023-02-21T11:03:32.266Z,142.87
2023-02-21T11:04:32.362Z,143.12
2023-02-21T11:05:33.163Z,137.35
2023-02-21T11:06:32.590Z,134.90
2023-02-21T11:07:32.685Z,135.45
2023-02-21T11:08:32.791Z,140.23
2023-02-21T11:09:32.894Z,146.77
2023-02-21T11:10:33.096Z,153.94
2023-02-21T11:11:33.461Z,164.41
2023-02-21T11:12:33.252Z,181.58
2023-02-21T11:13:33.349Z,194.19
2023-02-21T11:14:33.467Z,204.73
2023-02-21T11:15:33.584Z,206.93
2023-02-21T11:16:33.753Z,203.34
2023-02-21T11:17:33.826Z,202.71
2023-02-21T11:18:33.890Z,193.62
2023-02-21T11:19:34.001Z,190.14
2023-02-21T11:20:34.126Z,197.94
2023-02-21T11:21:34.319Z,199.14
2023-02-21T11:22:34.932Z,212.01
2023-02-21T11:23:34.422Z,231.12
2023-02-21T11:24:34.538Z,240.62
2023-02-21T11:25:34.637Z,259.86
2023-02-21T11:26:34.850Z,270.35
2023-02-21T11:27:34.864Z,285.90
2023-02-21T11:28:34.947Z,295.43
2023-02-21T11:29:35.057Z,295.69
2023-02-21T11:30:35.211Z,303.63
2023-02-21T11:31:35.619Z,310.52
2023-02-21T11:32:35.384Z,321.48
2023-02-21T11:33:35.488Z,328.23
2023-02-21T11:34:35.597Z,334.25
2023-02-21T11:35:35.711Z,344.79
2023-02-21T11:36:35.872Z,349.93
2023-02-21T11:37:35.919Z,359.13
2023-02-21T11:38:36.043Z,362.30
2023-02-21T11:39:36.121Z,360.31
2023-02-21T11:40:36.306Z,360.31
2023-02-21T11:41:36.519Z,359.91
2023-02-21T11:42:36.493Z,354.47
2023-02-21T11:43:36.589Z,358.34
2023-02-21T11:44:36.689Z,350.68
2023-02-21T11:45:36.873Z,346.24
2023-02-21T11:46:37.155Z,354.85
2023-02-21T11:47:37.160Z,339.08
2023-02-21T11:48:37.197Z,347.71
2023-02-21T11:49:37.335Z,365.93
2023-02-21T11:50:37.458Z,365.12
2023-02-21T11:51:38.968Z,352.19
2023-02-21T11:52:37.792Z,367.99
2023-02-21T11:53:37.827Z,370.90
2023-02-21T11:54:37.947Z,359.13
2023-02-21T11:55:38.090Z,349.56
2023-02-21T11:56:38.267Z,360.31
2023-02-21T11:57:38.397Z,375.57
2023-02-21T11:58:38.465Z,407.85
2023-02-21T11:59:38.592Z,445.74
2023-02-21T12:00:40.026Z,465.34
2023-02-21T12:01:38.842Z,482.16
2023-02-21T12:02:39.024Z,484.62
2023-02-21T12:03:39.119Z,455.18
2023-02-21T12:04:39.250Z,437.27
2023-02-21T12:05:39.415Z,401.71
2023-02-21T12:06:39.480Z,363.90
2023-02-21T12:07:39.702Z,396.45
2023-02-21T12:08:39.739Z,427.73
2023-02-21T12:09:39.883Z,442.49
2023-02-21T12:10:40.008Z,450.56
2023-02-21T12:11:40.328Z,464.05
2023-02-21T12:12:40.260Z,474.61
2023-02-21T12:13:40.440Z,473.94
2023-02-21T12:14:40.552Z,475.29
2023-02-21T12:15:40.652Z,444.26
2023-02-21T12:16:40.820Z,431.61
2023-02-21T12:17:40.919Z,453.63
2023-02-21T12:18:41.136Z,465.34
2023-02-21T12:19:41.178Z,453.94
2023-02-21T12:20:41.326Z,468.61
2023-02-21T12:21:41.469Z,501.00
2023-02-21T12:22:42.782Z,511.38
2023-02-21T12:23:41.878Z,489.96
2023-02-21T12:24:41.876Z,491.04
2023-02-21T12:25:41.975Z,505.56
2023-02-21T12:26:42.131Z,509.81
2023-02-21T12:27:42.219Z,516.92
2023-02-21T12:28:42.458Z,495.05
2023-02-21T12:29:42.496Z,473.60
2023-02-21T12:30:42.655Z,445.74
2023-02-21T12:31:42.845Z,391.79
2023-02-21T12:32:42.891Z,411.12
2023-02-21T12:33:43.000Z,441.32
2023-02-21T12:34:43.249Z,452.09
2023-02-21T12:35:43.351Z,464.69
2023-02-21T12:36:43.388Z,503.65
2023-02-21T12:37:43.532Z,507.10
2023-02-21T12:38:43.659Z,512.16
2023-02-21T12:39:44.037Z,510.59
2023-02-21T12:40:43.946Z,521.37
2023-02-21T12:41:44.062Z,530.07
2023-02-21T12:42:44.203Z,534.75
2023-02-21T12:43:44.317Z,528.81
2023-02-21T12:44:44.516Z,500.25
2023-02-21T12:45:44.638Z,505.56
2023-02-21T12:46:44.740Z,501.76
2023-02-21T12:47:44.866Z,464.69
2023-02-21T12:48:44.966Z,444.26
2023-02-21T12:49:45.208Z,413.67